createdAt,value
2023-01-28T00:01:31.890Z,15.05
2023-01-28T00:05:35.067Z,15.55
2023-01-28T00:09:39.648Z,12.98
2023-01-28T00:13:44.212Z,12.32
2023-01-28T00:17:47.399Z,13.82
2023-01-28T00:21:50.270Z,10.40
2023-01-28T00:25:54.742Z,11.00
2023-01-28T00:29:59.021Z,15.13
2023-01-28T00:34:02.736Z,10.63
2023-01-28T00:38:06.016Z,19.25
2023-01-28T00:42:09.171Z,10.00
2023-01-28T00:46:14.044Z,14.73
2023-01-28T00:50:17.951Z,19.50
2023-01-28T00:54:20.939Z,15.50
2023-01-28T00:58:25.877Z,12.63
2023-01-28T01:02:30.601Z,12.98
2023-01-28T01:06:36.120Z,9.80
2023-01-28T01:10:40.227Z,21.35
2023-01-28T01:14:43.097Z,23.88
2023-01-28T01:18:49.805Z,17.92
2023-01-28T01:22:53.285Z,12.35
2023-01-28T01:26:56.671Z,10.32
2023-01-28T01:31:04.088Z,12.07
2023-01-28T01:35:11.738Z,20.85
2023-01-28T01:39:14.660Z,15.43
2023-01-28T01:43:18.485Z,17.75
2023-01-28T01:47:25.791Z,16.92
2023-01-28T01:51:34.061Z,19.60
2023-01-28T01:55:40.846Z,13.35
2023-01-28T01:59:46.154Z,15.93
2023-01-28T02:03:56.648Z,9.93
2023-01-28T02:08:21.288Z,14.63
2023-01-28T02:12:28.419Z,15.63
2023-01-28T02:16:32.379Z,11.25
2023-01-28T02:20:50.390Z,13.27
2023-01-28T02:25:34.811Z,14.77
2023-01-28T02:29:45.634Z,16.92
2023-01-28T02:33:55.839Z,10.88
2023-01-28T02:38:05.780Z,12.70
2023-01-28T02:42:13.817Z,15.02
2023-01-28T02:47:04.118Z,13.07
2023-01-28T02:51:17.355Z,14.27
2023-01-28T02:55:27.918Z,15.38
2023-01-28T02:59:42.223Z,13.85
2023-01-28T03:03:54.501Z,14.75
2023-01-28T03:07:59.533Z,16.05
2023-01-28T03:12:23.930Z,14.57
2023-01-28T03:16:44.809Z,14.57
2023-01-28T03:21:13.189Z,9.90
2023-01-28T03:25:39.274Z,23.55
2023-01-28T03:30:03.720Z,16.63
2023-01-28T03:34:24.810Z,24.45
2023-01-28T03:38:42.780Z,12.98
2023-01-28T03:42:47.259Z,18.65
2023-01-28T03:46:50.569Z,13.85
2023-01-28T03:50:57.457Z,10.95
2023-01-28T03:55:01.214Z,13.88
2023-01-28T03:59:05.901Z,12.90
2023-01-28T04:03:16.085Z,13.40
2023-01-28T04:07:19.434Z,12.68
2023-01-28T04:11:25.549Z,10.00
2023-01-28T04:15:31.146Z,13.45
2023-01-28T04:19:37.657Z,9.55
2023-01-28T04:23:40.741Z,13.55
2023-01-28T04:27:43.926Z,13.82
2023-01-28T04:31:48.315Z,17.70
2023-01-28T04:35:51.632Z,14.57
2023-01-28T04:39:54.607Z,17.10
2023-01-28T04:43:57.785Z,9.45
2023-01-28T04:48:02.596Z,21.55
2023-01-28T04:52:08.237Z,15.77
2023-01-28T04:56:11.291Z,12.48
2023-01-28T05:00:15.341Z,15.45
2023-01-28T05:04:20.041Z,13.63
2023-01-28T05:08:23.411Z,19.58
2023-01-28T05:12:26.763Z,12.40
2023-01-28T05:16:29.803Z,14.88
2023-01-28T05:20:34.380Z,13.77
2023-01-28T05:24:37.251Z,20.92
2023-01-28T05:28:40.510Z,14.27
2023-01-28T05:32:43.551Z,14.43
2023-01-28T05:36:50.949Z,15.27
2023-01-28T05:40:53.895Z,10.30
2023-01-28T05:44:57.261Z,17.83
2023-01-28T05:49:00.297Z,17.27
2023-01-28T05:53:06.972Z,10.60
2023-01-28T05:57:09.980Z,17.27
2023-01-28T06:01:13.582Z,11.20
2023-01-28T06:05:16.876Z,16.60
2023-01-28T06:09:21.389Z,15.70
2023-01-28T06:13:24.634Z,19.80
2023-01-28T06:17:27.816Z,18.02
2023-01-28T06:21:30.758Z,15.05
2023-01-28T06:25:35.442Z,16.73
2023-01-28T06:29:38.348Z,10.93
2023-01-28T06:33:41.249Z,16.02
2023-01-28T06:37:47.097Z,19.90
2023-01-28T06:41:51.700Z,13.85
2023-01-28T06:45:55.274Z,20.15
2023-01-28T06:49:58.167Z,20.23
2023-01-28T06:54:01.402Z,9.75
2023-01-28T06:58:05.908Z,16.73
2023-01-28T07:02:11.172Z,17.70
2023-01-28T07:06:14.706Z,20.13
2023-01-28T07:10:18.465Z,23.52
2023-01-28T07:14:23.040Z,27.55
2023-01-28T07:18:26.657Z,24.02
2023-01-28T07:22:29.792Z,27.55
2023-01-28T07:26:33.006Z,34.63
2023-01-28T07:30:37.556Z,27.17
2023-01-28T07:34:43.083Z,21.40
2023-01-28T07:38:46.217Z,30.85
2023-01-28T07:42:49.662Z,28.55
2023-01-28T07:46:54.016Z,24.60
2023-01-28T07:51:00.472Z,33.15
2023-01-28T07:55:03.375Z,34.83
2023-01-28T07:59:06.335Z,24.45
2023-01-28T08:03:15.911Z,30.80
2023-01-28T08:07:19.186Z,31.88
2023-01-28T08:11:23.317Z,27.48
2023-01-28T08:15:27.229Z,28.35
2023-01-28T08:19:31.508Z,27.33
2023-01-28T08:23:35.353Z,23.33
2023-01-28T08:27:38.355Z,30.25
2023-01-28T08:31:41.578Z,26.27
2023-01-28T08:35:46.385Z,18.92
2023-01-28T08:39:49.897Z,21.80
2023-01-28T08:43:52.774Z,31.33
2023-01-28T08:47:57.673Z,23.10
2023-01-28T08:52:01.948Z,27.20
2023-01-28T08:56:05.619Z,27.75
2023-01-28T09:00:13.277Z,25.60
2023-01-28T09:04:16.742Z,22.58
2023-01-28T09:08:21.853Z,33.25
2023-01-28T09:12:25.622Z,30.95
2023-01-28T09:16:29.050Z,34.22
2023-01-28T09:20:32.354Z,27.77
2023-01-28T09:24:38.918Z,35.75
2023-01-28T09:28:42.080Z,23.60
2023-01-28T09:32:45.330Z,31.70
2023-01-28T09:36:48.311Z,33.50
2023-01-28T09:40:53.074Z,25.13
2023-01-28T09:45:07.401Z,29.80
2023-01-28T09:49:20.379Z,32.33
2023-01-28T09:53:26.525Z,32.65
2023-01-28T09:57:38.495Z,39.17
2023-01-28T10:01:48.565Z,22.25
2023-01-28T10:06:03.794Z,27.67
2023-01-28T10:10:15.317Z,31.83
2023-01-28T10:14:32.270Z,25.93
2023-01-28T10:18:39.057Z,35.25
2023-01-28T10:22:47.412Z,37.30
2023-01-28T10:26:50.481Z,27.58
2023-01-28T10:30:54.920Z,31.40
2023-01-28T10:35:00.133Z,26.88
2023-01-28T10:39:03.162Z,34.88
2023-01-28T10:43:06.413Z,29.77
2023-01-28T10:47:15.837Z,25.50
2023-01-28T10:51:20.232Z,30.90
2023-01-28T10:55:25.670Z,32.80
2023-01-28T10:59:30.539Z,28.00
2023-01-28T11:03:36.250Z,34.85
2023-01-28T11:07:39.145Z,28.17
2023-01-28T11:11:42.192Z,24.27
2023-01-28T11:15:49.690Z,32.30
2023-01-28T11:19:55.040Z,36.28
2023-01-28T11:24:01.277Z,31.23
2023-01-28T11:28:09.340Z,25.42
2023-01-28T11:32:20.384Z,21.58
2023-01-28T11:36:26.590Z,25.85
2023-01-28T11:40:30.761Z,34.17
2023-01-28T11:44:33.765Z,23.65
2023-01-28T11:48:46.578Z,29.98
2023-01-28T11:53:10.394Z,29.40
2023-01-28T11:57:24.124Z,25.13
2023-01-28T12:01:36.970Z,20.67
2023-01-28T12:05:48.718Z,19.17
2023-01-28T12:09:57.905Z,16.37
2023-01-28T12:14:13.066Z,21.77
2023-01-28T12:18:31.349Z,16.85
2023-01-28T12:22:58.437Z,26.42
2023-01-28T12:27:13.050Z,16.65
2023-01-28T12:31:34.459Z,20.08
2023-01-28T12:35:51.310Z,21.10
2023-01-28T12:40:07.807Z,24.23
2023-01-28T12:44:15.813Z,32.45
2023-01-28T12:48:24.326Z,22.65
2023-01-28T12:52:34.449Z,21.20
2023-01-28T12:56:43.493Z,14.40
2023-01-28T13:00:52.544Z,28.92
2023-01-28T13:05:05.358Z,29.77
2023-01-28T13:09:18.174Z,22.45
2023-01-28T13:13:29.117Z,23.77
2023-01-28T13:17:35.133Z,19.23
2023-01-28T13:21:47.750Z,17.67
2023-01-28T13:25:53.429Z,21.90
2023-01-28T13:30:06.911Z,22.85
2023-01-28T13:34:29.358Z,26.38
2023-01-28T13:38:34.217Z,22.65
2023-01-28T13:42:38.473Z,25.80
2023-01-28T13:46:41.538Z,24.67
2023-01-28T13:50:47.151Z,24.25
2023-01-28T13:54:56.636Z,24.52
2023-01-28T13:59:25.990Z,20.63
2023-01-28T14:04:10.537Z,23.02
2023-01-28T14:08:48.587Z,25.25
2023-01-28T14:13:06.967Z,23.52
2023-01-28T14:17:18.088Z,19.90
2023-01-28T14:21:22.346Z,18.40
2023-01-28T14:25:37.371Z,21.85
2023-01-28T14:29:50.518Z,23.20
2023-01-28T14:33:53.987Z,21.25
2023-01-28T14:37:57.597Z,20.98
2023-01-28T14:42:04.696Z,24.60
2023-01-28T14:46:21.247Z,17.92
2023-01-28T14:50:36.160Z,21.65
2023-01-28T14:55:00.635Z,20.70
2023-01-28T14:59:16.880Z,22.55
2023-01-28T15:03:25.349Z,24.08
2023-01-28T15:07:29.418Z,24.40
2023-01-28T15:11:32.685Z,26.08
2023-01-28T15:15:39.304Z,18.52
2023-01-28T15:19:42.499Z,27.25
2023-01-28T15:23:45.604Z,17.88
2023-01-28T15:27:49.599Z,17.30
2023-01-28T15:31:54.634Z,21.85
2023-01-28T15:35:59.988Z,19.63
2023-01-28T15:40:06.232Z,23.50
2023-01-28T15:44:19.393Z,19.52
2023-01-28T15:48:26.897Z,19.35
2023-01-28T15:52:37.514Z,20.60
2023-01-28T15:56:40.558Z,20.73
2023-01-28T16:00:43.748Z,19.50
2023-01-28T16:04:59.568Z,23.88
2023-01-28T16:09:05.226Z,22.65
2023-01-28T16:13:15.712Z,31.60
2023-01-28T16:17:21.164Z,25.17
2023-01-28T16:21:27.962Z,21.08
2023-01-28T16:25:33.651Z,22.50
2023-01-28T16:29:37.563Z,28.52
2023-01-28T16:33:40.916Z,21.77
2023-01-28T16:37:46.288Z,22.13
2023-01-28T16:41:49.994Z,28.88
2023-01-28T16:45:53.029Z,24.75
2023-01-28T16:49:56.416Z,22.48
2023-01-28T16:54:01.067Z,28.23
2023-01-28T16:58:04.324Z,14.70
2023-01-28T17:02:07.719Z,24.08
2023-01-28T17:06:16.377Z,16.95
2023-01-28T17:10:21.194Z,22.75
2023-01-28T17:14:24.350Z,23.65
2023-01-28T17:18:27.609Z,23.73
2023-01-28T17:22:30.520Z,18.23
2023-01-28T17:26:35.635Z,31.30
2023-01-28T17:30:41.579Z,28.55
2023-01-28T17:34:44.614Z,26.60
2023-01-28T17:38:49.387Z,23.80
2023-01-28T17:42:53.707Z,24.83
2023-01-28T17:46:56.957Z,20.30
2023-01-28T17:51:00.001Z,21.55
2023-01-28T17:55:03.231Z,18.83
2023-01-28T17:59:07.972Z,26.92
2023-01-28T18:03:13.663Z,20.02
2023-01-28T18:07:16.617Z,24.02
2023-01-28T18:11:21.604Z,27.05
2023-01-28T18:15:26.485Z,21.20
2023-01-28T18:19:30.135Z,27.92
2023-01-28T18:23:33.578Z,24.60
2023-01-28T18:27:37.154Z,23.80
2023-01-28T18:31:41.540Z,29.98
2023-01-28T18:35:45.255Z,26.58
2023-01-28T18:39:48.256Z,24.20
2023-01-28T18:43:51.740Z,24.63
2023-01-28T18:47:56.106Z,22.20
2023-01-28T18:51:59.598Z,25.52
2023-01-28T18:56:04.252Z,23.40
2023-01-28T19:00:50.555Z,24.33
2023-01-28T19:04:58.020Z,25.58
2023-01-28T19:09:03.629Z,22.20
2023-01-28T19:13:07.143Z,20.13
2023-01-28T19:17:10.318Z,32.20
2023-01-28T19:21:15.350Z,20.65
2023-01-28T19:25:19.074Z,19.00
2023-01-28T19:29:21.974Z,22.08
2023-01-28T19:33:25.350Z,22.27
2023-01-28T19:37:30.049Z,32.22
2023-01-28T19:41:33.295Z,25.98
2023-01-28T19:45:36.499Z,20.52
2023-01-28T19:49:39.394Z,25.15
2023-01-28T19:53:46.013Z,24.30
2023-01-28T19:57:50.312Z,20.52
2023-01-28T20:01:53.423Z,23.58
2023-01-28T20:06:01.227Z,27.42
2023-01-28T20:10:10.161Z,25.70
2023-01-28T20:14:16.452Z,19.95
2023-01-28T20:18:19.494Z,27.02
2023-01-28T20:22:22.863Z,24.05
2023-01-28T20:26:31.765Z,24.65
2023-01-28T20:30:35.293Z,26.45
2023-01-28T20:34:38.529Z,36.22
2023-01-28T20:38:43.570Z,23.75
2023-01-28T20:42:48.100Z,25.30
2023-01-28T20:46:51.373Z,27.08
2023-01-28T20:50:54.384Z,21.63
2023-01-28T20:54:57.939Z,25.05
2023-01-28T20:59:05.360Z,27.02
2023-01-28T21:03:10.094Z,27.80
2023-01-28T21:07:13.444Z,24.25
2023-01-28T21:11:16.914Z,21.95
2023-01-28T21:15:21.681Z,23.40
2023-01-28T21:19:25.143Z,31.02
2023-01-28T21:23:28.387Z,24.88
2023-01-28T21:27:33.178Z,26.23
2023-01-28T21:31:37.793Z,23.83
2023-01-28T21:35:42.622Z,24.10
2023-01-28T21:39:45.513Z,30.25
2023-01-28T21:43:50.507Z,22.92
2023-01-28T21:47:56.357Z,19.88
2023-01-28T21:51:59.295Z,22.10
2023-01-28T21:56:02.517Z,25.25
2023-01-28T22:00:06.494Z,23.25
2023-01-28T22:04:11.036Z,22.58
2023-01-28T22:08:13.916Z,18.33
2023-01-28T22:12:17.356Z,28.50
2023-01-28T22:16:20.657Z,18.80
2023-01-28T22:20:27.093Z,13.60
2023-01-28T22:24:30.880Z,16.88
2023-01-28T22:28:34.192Z,14.77
2023-01-28T22:32:37.593Z,15.60
2023-01-28T22:36:42.137Z,11.85
2023-01-28T22:40:45.579Z,9.73
2023-01-28T22:44:48.476Z,8.10
2023-01-28T22:48:52.341Z,16.17
2023-01-28T22:52:56.938Z,18.98
2023-01-28T22:57:00.345Z,10.50
2023-01-28T23:01:03.545Z,13.07
2023-01-28T23:05:07.975Z,13.23
2023-01-28T23:09:12.507Z,15.98
2023-01-28T23:13:16.306Z,17.10
2023-01-28T23:17:37.391Z,13.18
2023-01-28T23:21:57.174Z,15.45
2023-01-28T23:26:06.930Z,13.52
2023-01-28T23:30:12.333Z,16.98
2023-01-28T23:34:16.663Z,17.63
2023-01-28T23:38:19.715Z,16.52
2023-01-28T23:42:26.544Z,15.18
2023-01-28T23:46:39.067Z,11.68
2023-01-28T23:50:43.191Z,14.18
2023-01-28T23:54:46.089Z,15.85
2023-01-28T23:58:51.223Z,17.98
